METAR Data
IDs: Format: Raw Decoded Include TAF

Data at: 0039 UTC 25 Apr 2019

METAR for:KCKP (Cherokee Cnty, IA, US)
Text:KCKP 250035Z AUTO 19007KT 10SM CLR 21/06 A2972 RMK AO2 T02110060
Temperature: 21.1°C ( 70°F)
Dewpoint: 6.0°C ( 43°F) [RH = 37%]
Pressure (altimeter):29.72 inches Hg (1006.5 mb)
Winds:from the S (190 degrees) at 8 MPH (7 knots; 3.6 m/s)
Visibility:10 or more sm (16+ km)
Ceiling:at least 12,000 feet AGL
Clouds:sky clear below 12,000 feet AGL
QC Flag:automated observation with no human augmentation